Terminal Aerodrome Forecast
Issued by NWS

Current Version | Previous Version | Text Only | Print | Product List | Glossary On
Versions: 1 2 3 4 5 6 7 8 9 10 11 12 13 14 15 16 17 18 19 20
000
FTUS46 KPDT 300537
TAFPSC
TAF
KPSC 300537Z 3006/3106 30008KT P6SM SCT100
     FM300800 25008KT P6SM SCT060 BKN100
      TEMPO 3010/3014 -RA BKN050 BKN100
     FM301400 25012KT P6SM -RA OVC060
     FM302000 25016G26KT P6SM SCT060 BKN080
     FM310200 25014G24KT P6SM SCT100=

USA.gov is the U.S. government's official web portal to all federal, state and local government web resources and services.